Time;durP1;ratioP1;P1;durP2;ratioP2;P2;SDS_P1;SDS_P2;PMS_P1;PMS_P2;Temp;Humidity;BMP_temperature;BMP_pressure;BME280_temperature;BME280_humidity;BME280_pressure;Samples;Min_cycle;Max_cycle;Signal;HPM_P1;HPM_P2
2021/07/24 00:00:08;;;;;;;16.13;14.57;;;20.40;99.90;;;;;;6222659;23;20919;-86
2021/07/24 00:02:36;;;;;;;15.10;13.83;;;20.40;99.90;;;;;;6215660;23;20437;-85
2021/07/24 00:05:04;;;;;;;15.00;13.60;;;20.40;99.90;;;;;;6215749;23;20924;-85
2021/07/24 00:07:31;;;;;;;17.43;15.73;;;20.40;99.90;;;;;;6216203;23;20500;-85
2021/07/24 00:09:58;;;;;;;17.77;16.20;;;20.40;99.90;;;;;;6216011;23;20413;-84
2021/07/24 00:12:24;;;;;;;15.93;14.43;;;20.40;99.90;;;;;;6215794;23;20425;-86
2021/07/24 00:14:52;;;;;;;18.60;16.77;;;20.40;99.90;;;;;;6216353;23;20415;-86
2021/07/24 00:17:18;;;;;;;16.73;15.23;;;20.30;99.90;;;;;;6215812;23;20417;-86
2021/07/24 00:19:46;;;;;;;17.03;15.43;;;20.30;99.90;;;;;;6216441;23;20427;-86
2021/07/24 00:22:13;;;;;;;16.33;14.73;;;20.30;99.90;;;;;;6215693;23;20430;-85
2021/07/24 00:24:40;;;;;;;17.20;15.50;;;20.30;99.90;;;;;;6215939;23;20405;-85
2021/07/24 00:27:08;;;;;;;15.60;14.20;;;20.30;99.90;;;;;;6215771;23;20405;-86
2021/07/24 00:29:35;;;;;;;15.20;13.70;;;20.30;99.90;;;;;;6215780;23;20405;-85
2021/07/24 00:32:02;;;;;;;16.13;14.43;;;20.30;99.90;;;;;;6215151;23;20453;-85
2021/07/24 00:34:29;;;;;;;19.37;15.60;;;20.20;99.90;;;;;;6215495;23;20744;-86
2021/07/24 00:36:58;;;;;;;19.43;15.87;;;20.20;99.90;;;;;;6215963;23;20414;-85
2021/07/24 00:39:25;;;;;;;21.60;17.00;;;20.10;99.90;;;;;;6215420;23;20464;-85
2021/07/24 00:41:57;;;;;;;16.33;14.80;;;20.10;99.90;;;;;;6216261;23;20421;-86
2021/07/24 00:44:26;;;;;;;16.13;14.50;;;20.10;99.90;;;;;;6216739;23;20422;-86
2021/07/24 00:46:54;;;;;;;15.80;14.10;;;20.00;99.90;;;;;;6216481;23;20415;-85
2021/07/24 00:49:22;;;;;;;17.43;15.67;;;20.00;99.90;;;;;;6215965;23;20408;-86
2021/07/24 00:51:53;;;;;;;16.17;14.47;;;20.00;99.90;;;;;;6214985;23;20959;-86
2021/07/24 00:54:21;;;;;;;16.00;14.30;;;20.00;99.90;;;;;;6215252;23;20889;-86
2021/07/24 00:56:50;;;;;;;20.60;16.07;;;20.00;99.90;;;;;;6215709;23;20517;-85
2021/07/24 00:59:17;;;;;;;17.00;15.20;;;19.90;99.90;;;;;;6215981;23;20409;-85
2021/07/24 01:01:46;;;;;;;17.60;15.80;;;19.90;99.90;;;;;;6215019;23;20423;-85
2021/07/24 01:04:12;;;;;;;15.90;14.43;;;19.80;99.90;;;;;;6215629;23;20419;-86
2021/07/24 01:06:40;;;;;;;16.83;15.10;;;19.90;99.90;;;;;;6215146;23;20401;-85
2021/07/24 01:09:07;;;;;;;14.80;13.40;;;19.90;99.90;;;;;;6215796;23;20413;-84
2021/07/24 01:11:36;;;;;;;17.03;15.40;;;19.80;99.90;;;;;;6214900;23;20955;-86
2021/07/24 01:14:02;;;;;;;16.53;14.20;;;19.90;99.90;;;;;;6215188;23;20404;-85
2021/07/24 01:16:30;;;;;;;15.00;13.70;;;19.80;99.90;;;;;;6215816;23;20415;-85
2021/07/24 01:18:57;;;;;;;15.50;14.13;;;19.80;99.90;;;;;;6217431;23;20927;-85
2021/07/24 01:21:26;;;;;;;16.07;14.37;;;19.80;99.90;;;;;;6217213;23;20421;-85
2021/07/24 01:23:53;;;;;;;15.57;14.07;;;19.80;99.90;;;;;;6217460;23;20752;-85
2021/07/24 01:26:24;;;;;;;16.37;14.77;;;19.80;99.90;;;;;;6217519;23;20413;-85
2021/07/24 01:28:51;;;;;;;14.43;13.13;;;19.70;99.90;;;;;;6216945;23;20442;-85
2021/07/24 01:31:18;;;;;;;16.60;15.00;;;19.70;99.90;;;;;;6217078;23;20446;-85
2021/07/24 01:33:44;;;;;;;16.97;15.37;;;19.70;99.90;;;;;;6216981;23;20410;-85
2021/07/24 01:36:11;;;;;;;15.97;14.57;;;19.60;99.90;;;;;;6217449;23;20415;-85
2021/07/24 01:38:40;;;;;;;18.57;15.90;;;19.50;99.90;;;;;;6217725;23;20424;-85
2021/07/24 01:41:07;;;;;;;18.70;15.27;;;19.60;99.90;;;;;;6217965;23;20957;-84
2021/07/24 01:43:34;;;;;;;15.70;14.27;;;19.60;99.90;;;;;;6216977;23;20741;-85
2021/07/24 01:46:01;;;;;;;17.50;15.60;;;19.60;99.90;;;;;;6217049;23;20418;-86
2021/07/24 01:48:36;;;;;;;17.73;15.83;;;19.60;99.90;;;;;;6216771;23;20408;-85
2021/07/24 01:53:53;;;;;;;17.67;16.07;;;19.60;99.90;;;;;;6217258;23;20373;-85
2021/07/24 01:56:24;;;;;;;18.40;16.40;;;19.70;99.90;;;;;;6217065;23;20868;-86
2021/07/24 01:58:51;;;;;;;17.37;15.60;;;19.60;99.90;;;;;;6217135;23;20381;-86
2021/07/24 02:01:20;;;;;;;15.67;14.10;;;19.60;99.90;;;;;;6217132;23;20432;-84
2021/07/24 02:03:52;;;;;;;18.30;15.10;;;19.60;99.90;;;;;;6217256;23;20737;-85
2021/07/24 02:06:19;;;;;;;17.37;15.67;;;19.60;99.90;;;;;;6217419;23;20416;-86
2021/07/24 02:08:49;;;;;;;15.00;13.57;;;19.60;99.90;;;;;;6217179;23;20420;-85
2021/07/24 02:11:17;;;;;;;16.90;15.40;;;19.60;99.90;;;;;;6216794;23;20788;-85
2021/07/24 02:13:46;;;;;;;17.23;15.53;;;19.60;99.90;;;;;;6216661;23;20581;-86
2021/07/24 02:16:13;;;;;;;16.43;14.77;;;19.60;99.90;;;;;;6217298;23;20725;-85
2021/07/24 02:18:41;;;;;;;17.23;15.53;;;19.60;99.90;;;;;;6217362;23;20405;-85
2021/07/24 02:21:09;;;;;;;16.20;14.70;;;19.60;99.90;;;;;;6218426;23;20429;-85
2021/07/24 02:23:36;;;;;;;16.43;14.77;;;19.70;99.90;;;;;;6218394;23;20417;-84
2021/07/24 02:26:04;;;;;;;16.07;14.60;;;19.70;99.90;;;;;;6218227;23;20414;-85
2021/07/24 02:28:31;;;;;;;17.10;15.40;;;19.70;99.90;;;;;;6218217;23;20409;-86
2021/07/24 02:30:57;;;;;;;17.10;15.57;;;19.70;99.90;;;;;;6217894;23;20459;-85
2021/07/24 02:33:24;;;;;;;16.90;15.10;;;19.70;99.90;;;;;;6217388;23;20409;-84
2021/07/24 02:35:51;;;;;;;17.50;15.80;;;19.70;99.90;;;;;;6217054;23;20417;-86
2021/07/24 02:38:17;;;;;;;16.47;15.07;;;19.70;99.90;;;;;;6217249;23;20408;-85
2021/07/24 02:40:44;;;;;;;22.50;17.43;;;19.60;99.90;;;;;;6217203;23;20413;-84
2021/07/24 02:43:12;;;;;;;16.10;14.50;;;19.70;99.90;;;;;;6215530;23;20417;-85
2021/07/24 02:45:39;;;;;;;15.60;13.93;;;19.70;99.90;;;;;;6215387;23;20538;-86
2021/07/24 02:48:06;;;;;;;19.17;17.30;;;19.70;99.90;;;;;;6216688;23;20908;-85
2021/07/24 02:50:33;;;;;;;15.07;13.77;;;19.80;99.90;;;;;;6217075;23;20460;-84
2021/07/24 02:52:59;;;;;;;15.80;14.20;;;19.80;99.90;;;;;;6216583;23;20465;-85
2021/07/24 02:55:26;;;;;;;15.20;13.80;;;19.80;99.90;;;;;;6217138;23;20420;-86
2021/07/24 02:57:53;;;;;;;15.27;13.87;;;19.90;99.90;;;;;;6216979;23;20410;-86
2021/07/24 03:00:21;;;;;;;16.40;14.70;;;19.90;99.90;;;;;;6216826;23;20409;-85
2021/07/24 03:02:48;;;;;;;15.33;14.00;;;19.90;99.90;;;;;;6216429;23;20447;-85
2021/07/24 03:05:15;;;;;;;17.10;15.50;;;19.90;99.90;;;;;;6216556;23;20417;-86
2021/07/24 03:07:42;;;;;;;16.60;14.87;;;19.90;99.90;;;;;;6216429;23;20405;-85
2021/07/24 03:10:10;;;;;;;15.60;14.10;;;19.90;99.90;;;;;;6216704;23;20903;-86
2021/07/24 03:12:36;;;;;;;14.83;13.53;;;20.00;99.90;;;;;;6216335;23;20971;-86
2021/07/24 03:15:04;;;;;;;16.03;14.53;;;20.00;99.90;;;;;;6216790;23;20436;-85
2021/07/24 03:17:32;;;;;;;15.40;14.00;;;20.00;99.90;;;;;;6216309;23;20402;-85
2021/07/24 03:19:59;;;;;;;17.47;15.40;;;20.00;99.90;;;;;;6216836;23;20409;-85
2021/07/24 03:22:26;;;;;;;15.20;13.60;;;20.00;99.90;;;;;;6216022;23;20426;-85
2021/07/24 03:24:56;;;;;;;16.40;14.90;;;20.10;99.90;;;;;;6216808;23;20431;-85
2021/07/24 03:27:22;;;;;;;16.93;15.13;;;20.00;99.90;;;;;;6216462;23;20416;-85
2021/07/24 03:29:49;;;;;;;15.47;14.00;;;20.00;99.90;;;;;;6217872;23;20409;-86
2021/07/24 03:32:16;;;;;;;15.93;14.10;;;20.10;99.90;;;;;;6225518;23;20447;-84
2021/07/24 03:34:44;;;;;;;16.10;14.50;;;20.10;99.90;;;;;;6241506;23;20441;-84
2021/07/24 03:37:10;;;;;;;15.63;14.03;;;20.10;99.90;;;;;;6241342;23;20413;-84
2021/07/24 03:39:37;;;;;;;14.47;13.17;;;20.10;99.90;;;;;;6223956;23;20406;-86
2021/07/24 03:42:04;;;;;;;16.63;15.17;;;20.10;99.90;;;;;;6223307;23;20418;-85
2021/07/24 03:44:31;;;;;;;17.33;15.93;;;20.10;99.90;;;;;;6224312;23;20405;-85
2021/07/24 03:46:58;;;;;;;17.10;15.50;;;20.10;99.90;;;;;;6224652;23;20412;-85
2021/07/24 03:49:25;;;;;;;15.60;14.00;;;20.00;99.90;;;;;;6223895;23;20407;-86
2021/07/24 03:51:53;;;;;;;14.10;12.80;;;20.00;99.90;;;;;;6222820;23;20453;-85
2021/07/24 03:54:20;;;;;;;15.17;13.63;;;20.00;99.90;;;;;;6223643;23;20405;-85
2021/07/24 03:56:47;;;;;;;18.23;14.83;;;20.00;99.90;;;;;;6224188;23;20412;-85
2021/07/24 03:59:13;;;;;;;16.07;14.37;;;19.80;99.90;;;;;;6223981;23;20420;-86
2021/07/24 04:01:42;;;;;;;18.87;15.87;;;19.70;99.90;;;;;;6225661;23;20453;-84
2021/07/24 04:04:08;;;;;;;16.70;15.10;;;19.80;99.90;;;;;;6223327;23;20409;-83
2021/07/24 04:06:35;;;;;;;15.90;14.33;;;19.70;99.90;;;;;;6222651;23;20409;-83
2021/07/24 04:09:05;;;;;;;14.40;13.30;;;19.70;99.90;;;;;;6222430;23;20416;-83
2021/07/24 04:11:33;;;;;;;16.67;14.53;;;19.80;99.90;;;;;;6221795;23;20448;-84
2021/07/24 04:14:00;;;;;;;17.43;15.87;;;19.70;99.90;;;;;;6222292;23;20417;-84
2021/07/24 04:16:28;;;;;;;15.10;13.50;;;19.80;99.90;;;;;;6222085;23;20409;-83
2021/07/24 04:18:55;;;;;;;15.03;13.70;;;19.80;99.90;;;;;;6222251;23;20407;-83
2021/07/24 04:21:22;;;;;;;14.60;13.17;;;19.80;99.90;;;;;;6220902;23;20433;-83
2021/07/24 04:23:49;;;;;;;16.63;15.10;;;19.60;99.90;;;;;;6222032;23;20410;-84
2021/07/24 04:26:17;;;;;;;15.43;14.03;;;19.70;99.90;;;;;;6221840;23;20740;-84
2021/07/24 04:28:44;;;;;;;15.87;14.27;;;19.80;99.90;;;;;;6221627;23;20931;-84
2021/07/24 04:31:13;;;;;;;16.73;15.17;;;19.80;99.90;;;;;;6221917;23;20429;-84
2021/07/24 04:33:41;;;;;;;14.93;13.43;;;19.90;99.90;;;;;;6221704;23;20444;-84
2021/07/24 04:36:08;;;;;;;15.53;14.03;;;20.00;99.90;;;;;;6221810;23;20415;-84
2021/07/24 04:38:34;;;;;;;14.33;12.90;;;20.00;99.90;;;;;;6221984;23;20424;-84
2021/07/24 04:41:01;;;;;;;15.30;13.80;;;20.10;99.90;;;;;;6221577;23;20429;-84
2021/07/24 04:43:29;;;;;;;16.83;15.23;;;20.20;99.90;;;;;;6221505;23;20407;-84
2021/07/24 04:45:56;;;;;;;15.70;14.33;;;20.20;99.90;;;;;;6221501;23;20407;-84
2021/07/24 04:48:23;;;;;;;15.37;12.77;;;20.20;99.90;;;;;;6222563;23;20496;-83
2021/07/24 04:50:53;;;;;;;14.83;13.57;;;20.30;99.90;;;;;;6222995;23;20416;-84
2021/07/24 04:53:21;;;;;;;16.93;15.30;;;20.20;99.90;;;;;;6223984;23;20441;-84
2021/07/24 04:55:48;;;;;;;16.40;14.80;;;20.20;99.90;;;;;;6223989;23;20404;-84
2021/07/24 04:58:15;;;;;;;15.33;13.80;;;20.30;99.90;;;;;;6223789;23;20408;-84
2021/07/24 05:00:44;;;;;;;15.13;13.83;;;20.20;99.90;;;;;;6225272;23;20491;-83
2021/07/24 05:03:12;;;;;;;17.00;15.20;;;20.10;99.90;;;;;;6226579;23;20913;-84
2021/07/24 05:05:39;;;;;;;16.03;14.60;;;20.20;99.90;;;;;;6229291;23;20407;-84
2021/07/24 05:08:08;;;;;;;16.17;14.67;;;20.20;99.90;;;;;;6228158;23;20419;-83
2021/07/24 05:10:35;;;;;;;16.77;15.27;;;20.20;99.90;;;;;;6226704;23;20406;-84
2021/07/24 05:13:01;;;;;;;14.87;13.47;;;20.20;99.90;;;;;;6224543;23;20982;-84
2021/07/24 05:15:28;;;;;;;15.37;14.03;;;20.00;99.90;;;;;;6224836;23;20413;-84
2021/07/24 05:17:56;;;;;;;15.30;12.93;;;20.10;99.90;;;;;;6225418;23;20420;-84
2021/07/24 05:20:24;;;;;;;15.00;13.60;;;20.20;99.90;;;;;;6223986;23;20420;-84
2021/07/24 05:22:51;;;;;;;17.13;15.63;;;20.30;99.90;;;;;;6222716;23;20445;-84
2021/07/24 05:25:18;;;;;;;15.00;13.60;;;20.40;99.90;;;;;;6223315;23;20433;-85
2021/07/24 05:27:45;;;;;;;16.13;14.63;;;20.30;99.90;;;;;;6227386;23;20428;-87
2021/07/24 05:30:13;;;;;;;15.17;13.77;;;20.20;99.90;;;;;;6226260;23;20431;-87
2021/07/24 05:32:41;;;;;;;14.60;13.30;;;20.30;99.90;;;;;;6227327;23;20453;-84
2021/07/24 05:35:10;;;;;;;14.63;13.10;;;20.30;99.90;;;;;;6228196;23;20413;-86
2021/07/24 05:37:37;;;;;;;15.67;14.00;;;20.30;99.90;;;;;;6226500;23;20420;-86
2021/07/24 05:40:04;;;;;;;14.17;12.73;;;20.50;99.90;;;;;;6226610;23;20676;-85
2021/07/24 05:42:31;;;;;;;14.93;13.60;;;20.60;99.90;;;;;;6226395;23;20476;-86
2021/07/24 05:44:57;;;;;;;14.73;13.43;;;20.60;99.90;;;;;;6225956;23;20413;-85
2021/07/24 05:47:24;;;;;;;14.30;12.90;;;20.90;99.90;;;;;;6225898;23;20411;-86
2021/07/24 05:49:51;;;;;;;13.87;12.57;;;21.10;99.90;;;;;;6226530;23;20417;-86
2021/07/24 05:52:19;;;;;;;13.80;12.47;;;21.40;99.90;;;;;;6225180;23;20451;-85
2021/07/24 05:54:46;;;;;;;15.67;14.27;;;21.60;99.90;;;;;;6226280;23;20419;-85
2021/07/24 05:57:13;;;;;;;15.00;13.50;;;21.80;99.90;;;;;;6225494;23;20505;-85
2021/07/24 05:59:39;;;;;;;15.30;13.90;;;21.80;99.90;;;;;;6225825;23;20442;-86
2021/07/24 06:02:06;;;;;;;15.43;13.30;;;21.80;99.90;;;;;;6225916;23;20500;-84
2021/07/24 06:04:33;;;;;;;13.53;12.33;;;22.00;99.90;;;;;;6226454;23;20418;-85
2021/07/24 06:07:00;;;;;;;14.50;13.30;;;22.10;99.90;;;;;;6225384;23;20755;-86
2021/07/24 06:09:28;;;;;;;13.83;12.53;;;22.10;99.90;;;;;;6225437;23;20409;-85
2021/07/24 06:11:55;;;;;;;12.80;11.70;;;22.20;99.90;;;;;;6224785;23;20443;-86
2021/07/24 06:14:23;;;;;;;13.57;12.27;;;22.20;99.90;;;;;;6225445;23;20423;-87
2021/07/24 06:16:50;;;;;;;15.03;13.43;;;22.20;99.90;;;;;;6225993;23;20613;-87
2021/07/24 06:19:17;;;;;;;15.20;13.70;;;22.30;99.90;;;;;;6226081;23;20414;-85
2021/07/24 06:21:44;;;;;;;14.93;13.53;;;22.30;99.90;;;;;;6225555;23;20431;-86
2021/07/24 06:24:10;;;;;;;16.03;12.77;;;22.30;99.90;;;;;;6225391;23;20416;-85
2021/07/24 06:26:39;;;;;;;13.67;12.47;;;22.30;99.90;;;;;;6225852;23;20409;-86
2021/07/24 06:29:05;;;;;;;13.77;12.47;;;22.20;99.90;;;;;;6225838;23;20416;-86
2021/07/24 06:31:32;;;;;;;17.20;15.37;;;22.20;99.90;;;;;;6226003;23;20434;-86
2021/07/24 06:34:02;;;;;;;14.57;13.10;;;22.20;99.90;;;;;;6225422;23;20445;-86
2021/07/24 06:36:28;;;;;;;15.90;14.23;;;22.30;99.90;;;;;;6225863;23;20412;-86
2021/07/24 06:38:56;;;;;;;14.40;13.10;;;22.40;99.90;;;;;;6226359;23;20415;-86
2021/07/24 06:41:23;;;;;;;17.03;13.37;;;22.60;99.90;;;;;;6225572;23;20493;-86
2021/07/24 06:43:51;;;;;;;15.23;13.93;;;22.80;99.90;;;;;;6225693;23;20412;-86
2021/07/24 06:46:18;;;;;;;14.67;13.27;;;23.00;99.90;;;;;;6226578;23;20476;-84
2021/07/24 06:48:45;;;;;;;16.53;14.33;;;23.20;99.90;;;;;;6224781;23;20409;-86
2021/07/24 06:51:12;;;;;;;15.63;14.03;;;23.30;99.90;;;;;;6223526;23;20440;-87
2021/07/24 06:53:39;;;;;;;14.53;13.03;;;23.50;99.90;;;;;;6222953;23;20435;-86
2021/07/24 06:56:05;;;;;;;13.10;11.80;;;23.50;99.90;;;;;;6219784;23;20902;-86
2021/07/24 06:58:33;;;;;;;14.77;13.47;;;23.60;99.90;;;;;;6225915;23;20416;-87
2021/07/24 07:01:01;;;;;;;15.40;12.03;;;23.70;99.90;;;;;;6225572;23;20426;-86
2021/07/24 07:03:28;;;;;;;15.07;13.23;;;23.80;99.90;;;;;;6224783;23;20405;-85
2021/07/24 07:05:54;;;;;;;16.30;14.63;;;23.90;99.90;;;;;;6225362;23;20409;-86
2021/07/24 07:08:23;;;;;;;16.93;14.10;;;24.00;99.90;;;;;;6224977;23;20405;-84
2021/07/24 07:10:50;;;;;;;18.00;13.60;;;24.00;99.90;;;;;;6224979;23;20413;-86
2021/07/24 07:13:17;;;;;;;15.50;13.90;;;24.10;99.90;;;;;;6222996;23;20467;-86
2021/07/24 07:15:44;;;;;;;14.50;13.17;;;24.10;99.90;;;;;;6223062;23;20413;-86
2021/07/24 07:18:12;;;;;;;15.63;13.50;;;24.00;99.90;;;;;;6224834;23;20476;-87
2021/07/24 07:20:39;;;;;;;14.70;13.20;;;23.90;99.90;;;;;;6224860;23;20409;-87
2021/07/24 07:23:06;;;;;;;15.10;13.70;;;23.90;99.90;;;;;;6225531;23;20752;-85
2021/07/24 07:25:32;;;;;;;17.83;15.97;;;23.80;99.90;;;;;;6232563;23;20396;-83
2021/07/24 07:27:59;;;;;;;16.17;14.80;;;23.80;99.90;;;;;;6241852;23;20429;-83
2021/07/24 07:30:26;;;;;;;14.67;13.13;;;23.70;99.90;;;;;;6238730;23;20424;-86
2021/07/24 07:32:53;;;;;;;15.53;13.23;;;23.60;99.90;;;;;;6224589;23;20952;-86
2021/07/24 07:35:21;;;;;;;17.63;14.20;;;23.60;99.90;;;;;;6225415;23;20413;-85
2021/07/24 07:37:50;;;;;;;18.83;14.90;;;23.60;99.90;;;;;;6225431;23;20769;-84
2021/07/24 07:40:17;;;;;;;17.73;15.90;;;23.60;99.90;;;;;;6224932;23;20489;-86
2021/07/24 07:42:44;;;;;;;19.17;14.57;;;23.60;99.90;;;;;;6224753;23;20433;-85
2021/07/24 07:45:11;;;;;;;15.07;13.47;;;23.70;99.90;;;;;;6225014;23;20437;-86
2021/07/24 07:47:38;;;;;;;13.77;12.47;;;23.70;99.90;;;;;;6225517;23;20415;-85
2021/07/24 07:50:06;;;;;;;14.90;13.53;;;23.40;99.90;;;;;;6223754;23;20411;-86
2021/07/24 07:52:34;;;;;;;17.77;12.50;;;23.00;99.90;;;;;;6224080;23;20453;-85
2021/07/24 07:55:01;;;;;;;14.43;13.00;;;23.00;99.90;;;;;;6224640;23;20427;-86
2021/07/24 07:57:29;;;;;;;14.20;12.93;;;23.10;99.90;;;;;;6223712;23;20411;-87
2021/07/24 07:59:56;;;;;;;14.10;12.90;;;22.90;99.50;;;;;;6224098;23;20465;-86
2021/07/24 08:02:23;;;;;;;15.67;13.90;;;22.80;99.90;;;;;;6225629;23;20429;-86
2021/07/24 08:04:50;;;;;;;15.93;14.03;;;22.80;99.90;;;;;;6224552;23;20415;-86
2021/07/24 08:07:16;;;;;;;13.67;12.40;;;22.80;99.90;;;;;;6224102;23;20419;-85
2021/07/24 08:09:45;;;;;;;13.73;12.50;;;22.70;99.90;;;;;;6222197;23;20409;-86
2021/07/24 08:12:11;;;;;;;15.57;13.20;;;22.80;99.90;;;;;;6222479;23;20433;-86
2021/07/24 08:14:38;;;;;;;15.10;12.87;;;23.00;99.90;;;;;;6224550;23;20456;-86
2021/07/24 08:17:15;;;;;;;15.77;14.27;;;23.00;99.90;;;;;;6226221;23;20800;-85
2021/07/24 08:19:43;;;;;;;13.47;12.30;;;23.10;99.90;;;;;;6225915;23;20405;-85
2021/07/24 08:22:09;;;;;;;16.07;14.57;;;23.30;99.90;;;;;;6225266;23;20509;-85
2021/07/24 08:24:36;;;;;;;15.97;14.53;;;23.40;99.90;;;;;;6225894;23;20401;-85
2021/07/24 08:27:04;;;;;;;15.77;14.10;;;23.50;99.90;;;;;;6225943;23;20414;-85
2021/07/24 08:29:31;;;;;;;14.23;12.87;;;23.60;99.90;;;;;;6226366;23;20417;-85
2021/07/24 08:31:58;;;;;;;14.90;13.60;;;23.80;99.90;;;;;;6226012;23;20428;-85
2021/07/24 08:34:25;;;;;;;15.47;13.97;;;23.90;99.90;;;;;;6225906;23;20482;-84
2021/07/24 08:36:52;;;;;;;15.60;14.20;;;24.00;99.90;;;;;;6225022;23;20407;-85
2021/07/24 08:39:19;;;;;;;13.80;12.80;;;24.30;99.90;;;;;;6225816;23;20885;-85
2021/07/24 08:41:45;;;;;;;14.30;12.90;;;24.40;99.90;;;;;;6225618;23;20431;-86
2021/07/24 08:44:13;;;;;;;13.00;11.70;;;24.60;99.90;;;;;;6226906;23;20414;-85
2021/07/24 08:46:41;;;;;;;14.93;13.37;;;24.80;99.90;;;;;;6225782;23;20419;-85
2021/07/24 08:49:07;;;;;;;14.37;13.23;;;25.00;99.90;;;;;;6225001;23;20434;-86
2021/07/24 08:51:37;;;;;;;14.03;12.63;;;25.20;99.80;;;;;;6224388;23;20927;-86
2021/07/24 08:54:05;;;;;;;13.47;11.93;;;25.50;99.70;;;;;;6223842;23;20970;-85
2021/07/24 08:56:36;;;;;;;14.00;12.60;;;25.50;98.30;;;;;;6224522;23;20499;-85
2021/07/24 08:59:04;;;;;;;13.57;12.37;;;25.50;97.90;;;;;;6225422;23;20440;-85
2021/07/24 09:01:36;;;;;;;14.70;13.40;;;25.50;98.30;;;;;;6224852;23;20446;-86
2021/07/24 09:04:06;;;;;;;14.73;13.23;;;25.50;98.10;;;;;;6224727;23;20443;-85
2021/07/24 09:06:33;;;;;;;13.40;12.13;;;25.60;98.20;;;;;;6225478;23;20406;-84
2021/07/24 09:09:00;;;;;;;16.00;14.60;;;25.60;97.40;;;;;;6222173;23;20454;-85
2021/07/24 09:11:28;;;;;;;16.67;14.97;;;25.60;97.20;;;;;;6221991;23;20434;-86
2021/07/24 09:13:56;;;;;;;15.90;14.40;;;25.70;97.40;;;;;;6223851;23;20437;-85
2021/07/24 09:16:24;;;;;;;15.20;13.80;;;25.70;97.40;;;;;;6224980;23;20408;-85
2021/07/24 09:18:54;;;;;;;15.33;13.90;;;25.90;97.30;;;;;;6224659;23;20404;-85
2021/07/24 09:21:21;;;;;;;15.23;14.13;;;26.00;96.90;;;;;;6224338;23;20766;-84
2021/07/24 09:23:48;;;;;;;15.43;13.87;;;26.10;96.90;;;;;;6224419;23;20415;-86
2021/07/24 09:26:33;;;;;;;15.83;14.33;;;26.30;96.20;;;;;;6224320;23;20893;-86
2021/07/24 09:29:11;;;;;;;14.37;13.00;;;26.40;96.00;;;;;;6223977;23;20423;-85
2021/07/24 09:31:40;;;;;;;16.30;14.70;;;26.50;96.00;;;;;;6223695;23;20425;-84
2021/07/24 09:34:08;;;;;;;16.47;14.87;;;26.60;96.30;;;;;;6225260;23;20496;-85
2021/07/24 09:36:36;;;;;;;15.60;14.20;;;26.60;95.70;;;;;;6227335;23;20422;-85
2021/07/24 09:39:10;;;;;;;16.33;14.00;;;26.70;95.70;;;;;;6229147;23;20458;-84
2021/07/24 09:41:38;;;;;;;15.33;13.93;;;26.80;95.80;;;;;;6228425;23;20426;-85
2021/07/24 09:44:05;;;;;;;14.13;12.93;;;26.80;95.00;;;;;;6228574;23;20405;-84
2021/07/24 09:46:32;;;;;;;14.33;13.03;;;26.80;95.30;;;;;;6230714;23;20417;-85
2021/07/24 09:49:12;;;;;;;15.30;13.70;;;26.90;96.10;;;;;;6228875;23;20409;-85
2021/07/24 09:51:40;;;;;;;14.93;13.63;;;26.90;95.30;;;;;;6229428;23;20440;-85
2021/07/24 09:54:22;;;;;;;13.87;12.57;;;26.90;95.10;;;;;;6231187;23;20446;-85
2021/07/24 09:56:50;;;;;;;14.80;11.80;;;27.00;94.90;;;;;;6227100;23;20456;-85
2021/07/24 09:59:19;;;;;;;12.60;11.47;;;27.10;94.40;;;;;;6226790;23;20440;-86
2021/07/24 10:01:52;;;;;;;14.03;12.83;;;27.20;93.50;;;;;;6227406;23;20415;-85
2021/07/24 10:04:25;;;;;;;13.07;12.00;;;27.30;94.00;;;;;;6225092;23;20391;-85
2021/07/24 10:06:59;;;;;;;13.20;12.00;;;27.40;93.50;;;;;;6225819;23;20399;-85
2021/07/24 10:09:29;;;;;;;12.73;11.53;;;27.60;94.60;;;;;;6226678;23;20407;-83
2021/07/24 10:11:57;;;;;;;13.20;12.00;;;27.80;93.20;;;;;;6225934;23;20428;-84
2021/07/24 10:14:24;;;;;;;11.80;10.70;;;28.10;92.20;;;;;;6225475;23;20447;-84
2021/07/24 10:16:52;;;;;;;12.00;10.90;;;28.20;92.20;;;;;;6224870;23;20415;-84
2021/07/24 10:19:20;;;;;;;13.57;12.33;;;28.30;90.90;;;;;;6225815;23;20438;-84
2021/07/24 10:21:50;;;;;;;12.40;11.20;;;28.60;91.40;;;;;;6226339;23;20793;-85
2021/07/24 10:24:17;;;;;;;11.27;10.27;;;28.70;90.70;;;;;;6229739;23;20853;-85
2021/07/24 10:26:50;;;;;;;12.00;10.70;;;28.90;91.10;;;;;;6229477;23;20472;-85
2021/07/24 10:29:22;;;;;;;9.90;9.10;;;29.00;89.30;;;;;;6230093;23;20429;-85
2021/07/24 10:31:53;;;;;;;10.00;9.10;;;29.10;88.30;;;;;;6229423;23;20429;-85
2021/07/24 10:34:25;;;;;;;12.50;11.40;;;29.20;85.50;;;;;;6228042;23;20487;-85
2021/07/24 10:36:53;;;;;;;10.97;9.97;;;29.20;85.60;;;;;;6229003;23;20726;-84
2021/07/24 10:39:22;;;;;;;9.53;8.37;;;29.30;84.60;;;;;;6227367;23;20397;-85
2021/07/24 10:41:50;;;;;;;10.73;9.67;;;29.30;83.10;;;;;;6229938;23;20430;-85
2021/07/24 10:44:37;;;;;;;9.43;8.57;;;29.10;82.40;;;;;;6229007;23;20411;-86
2021/07/24 10:47:15;;;;;;;10.00;9.10;;;29.10;84.80;;;;;;6229698;23;20456;-85
2021/07/24 10:50:02;;;;;;;9.27;8.47;;;29.20;85.00;;;;;;6230411;23;20476;-85
2021/07/24 10:53:01;;;;;;;9.00;7.37;;;29.30;81.90;;;;;;6226275;23;20964;-86
2021/07/24 10:55:39;;;;;;;10.17;9.30;;;29.30;79.30;;;;;;6195503;23;20412;-83
2021/07/24 10:58:06;;;;;;;12.83;8.70;;;29.40;82.50;;;;;;6228506;23;20394;-84
2021/07/24 11:00:50;;;;;;;9.83;9.03;;;29.50;81.90;;;;;;6229329;23;20436;-85
2021/07/24 11:03:40;;;;;;;8.50;7.70;;;29.50;81.80;;;;;;6229393;23;20463;-84
2021/07/24 11:06:37;;;;;;;9.57;8.53;;;29.40;79.80;;;;;;6228093;23;20386;-85
2021/07/24 11:09:18;;;;;;;8.40;7.17;;;29.50;78.70;;;;;;6229563;23;20425;-84
2021/07/24 11:11:48;;;;;;;9.00;8.00;;;29.60;77.30;;;;;;6229146;23;20427;-85
2021/07/24 11:14:58;;;;;;;7.50;6.93;;;29.70;77.70;;;;;;6227764;23;20441;-84
2021/07/24 11:17:25;;;;;;;9.53;8.00;;;29.90;77.80;;;;;;6233131;23;20385;-83
2021/07/24 11:20:35;;;;;;;8.13;7.37;;;29.80;77.60;;;;;;6240238;23;20417;-83
2021/07/24 11:23:06;;;;;;;8.17;7.50;;;29.70;78.30;;;;;;6236378;23;20429;-86
2021/07/24 11:25:38;;;;;;;9.40;8.70;;;29.50;79.60;;;;;;6230073;23;20389;-84
2021/07/24 11:28:07;;;;;;;8.93;8.13;;;29.30;81.10;;;;;;6229973;23;20393;-85
2021/07/24 11:30:34;;;;;;;7.63;6.93;;;29.20;83.60;;;;;;6230492;23;20440;-86
2021/07/24 11:33:01;;;;;;;8.70;7.83;;;28.80;77.40;;;;;;6229850;23;20515;-86
2021/07/24 11:35:33;;;;;;;10.13;8.90;;;28.60;78.40;;;;;;6230511;23;20475;-85
2021/07/24 11:38:01;;;;;;;10.20;7.30;;;28.30;78.30;;;;;;6230276;23;20396;-85
2021/07/24 11:40:29;;;;;;;8.23;7.57;;;28.00;79.00;;;;;;6230896;23;20408;-85
2021/07/24 11:43:00;;;;;;;9.90;9.00;;;27.80;80.30;;;;;;6229352;23;20434;-84
2021/07/24 11:45:30;;;;;;;8.90;8.00;;;27.60;80.90;;;;;;6229899;23;20391;-84
2021/07/24 11:48:11;;;;;;;9.30;8.50;;;27.40;82.30;;;;;;6230006;23;20768;-85
2021/07/24 11:50:38;;;;;;;8.70;7.90;;;27.20;82.70;;;;;;6230019;23;20395;-84
2021/07/24 11:53:05;;;;;;;8.63;7.80;;;27.10;84.00;;;;;;6229212;23;20918;-84
2021/07/24 11:55:33;;;;;;;14.90;8.60;;;27.20;83.40;;;;;;6228702;23;20452;-85
2021/07/24 11:58:01;;;;;;;9.40;8.60;;;27.30;83.80;;;;;;6230689;23;20441;-85
2021/07/24 12:00:34;;;;;;;8.33;7.53;;;27.40;84.20;;;;;;6229797;23;20432;-85
2021/07/24 12:03:14;;;;;;;9.17;8.47;;;27.70;84.40;;;;;;6229423;23;20484;-85
2021/07/24 12:05:41;;;;;;;9.10;8.20;;;28.00;83.90;;;;;;6228930;23;20395;-84
2021/07/24 12:08:09;;;;;;;8.27;7.57;;;28.30;82.40;;;;;;6228742;23;20413;-86
2021/07/24 12:10:37;;;;;;;8.93;7.97;;;28.90;81.30;;;;;;6228321;23;20440;-85
2021/07/24 12:13:05;;;;;;;9.37;8.47;;;29.30;80.70;;;;;;6227604;23;20467;-85
2021/07/24 12:15:59;;;;;;;9.03;8.23;;;29.80;80.10;;;;;;6227109;23;20835;-84
2021/07/24 12:18:26;;;;;;;8.27;7.57;;;30.40;77.80;;;;;;6230071;23;20496;-85
2021/07/24 12:21:05;;;;;;;11.03;8.67;;;31.00;75.80;;;;;;6226359;23;20412;-84
2021/07/24 12:23:32;;;;;;;9.00;8.20;;;31.40;74.10;;;;;;6224776;23;20398;-85
2021/07/24 12:26:13;;;;;;;9.80;9.03;;;31.60;71.80;;;;;;6225901;23;20410;-84
2021/07/24 12:28:41;;;;;;;9.13;8.33;;;31.60;71.40;;;;;;6225144;23;20410;-84
2021/07/24 12:31:26;;;;;;;9.23;8.47;;;31.80;71.80;;;;;;6224132;23;20425;-85
2021/07/24 12:33:55;;;;;;;8.83;7.97;;;32.10;70.60;;;;;;6223880;23;20621;-85
2021/07/24 12:36:23;;;;;;;8.90;8.30;;;32.50;70.20;;;;;;6224573;23;20412;-84
2021/07/24 12:38:51;;;;;;;8.10;7.40;;;32.90;67.00;;;;;;6223571;23;20424;-85
2021/07/24 12:41:28;;;;;;;9.37;8.40;;;33.10;65.90;;;;;;6223477;23;20432;-85